Time;durP1;ratioP1;P1;durP2;ratioP2;P2;SDS_P1;SDS_P2;PMS_P1;PMS_P2;Temp;Humidity;BMP_temperature;BMP_pressure;BME280_temperature;BME280_humidity;BME280_pressure;Samples;Min_cycle;Max_cycle;Signal;HPM_P1;HPM_P2
2022/07/19 00:00:08;;;;;;;10.32;6.47;;;21.10;99.90;;;;;;5035242;28;20041;-73
2022/07/19 00:02:34;;;;;;;10.88;6.13;;;21.10;99.90;;;;;;5035161;28;20053;-72
2022/07/19 00:04:59;;;;;;;9.65;6.60;;;21.10;99.90;;;;;;5035026;28;20451;-73
2022/07/19 00:07:25;;;;;;;8.40;6.55;;;21.10;99.90;;;;;;5035083;28;20049;-70
2022/07/19 00:09:51;;;;;;;12.35;6.30;;;21.10;99.90;;;;;;5034983;28;20370;-72
2022/07/19 00:12:16;;;;;;;11.73;6.65;;;21.10;99.90;;;;;;5034607;28;20515;-71
2022/07/19 00:14:42;;;;;;;11.48;6.68;;;21.00;99.90;;;;;;5035158;28;20133;-72
2022/07/19 00:17:07;;;;;;;8.55;7.00;;;21.00;99.90;;;;;;5035086;28;20045;-71
2022/07/19 00:19:33;;;;;;;9.65;6.63;;;21.00;99.90;;;;;;5034954;28;20463;-72
2022/07/19 00:21:59;;;;;;;7.88;5.95;;;21.00;99.90;;;;;;5035017;28;20115;-73
2022/07/19 00:24:24;;;;;;;10.98;6.85;;;21.00;99.90;;;;;;5034846;28;20460;-69
2022/07/19 00:26:50;;;;;;;10.00;6.32;;;20.90;99.90;;;;;;5034160;28;20072;-71
2022/07/19 00:29:15;;;;;;;7.22;5.80;;;21.00;99.90;;;;;;5016395;28;20092;-70
2022/07/19 00:31:41;;;;;;;8.25;6.25;;;20.90;99.90;;;;;;5034725;28;20057;-72
2022/07/19 00:34:06;;;;;;;8.90;6.53;;;20.90;99.90;;;;;;5017450;28;20044;-69
2022/07/19 00:36:32;;;;;;;9.15;5.85;;;20.90;99.90;;;;;;5034749;28;20041;-73
2022/07/19 00:38:58;;;;;;;10.55;6.57;;;20.90;99.90;;;;;;5034467;28;20041;-73
2022/07/19 00:41:23;;;;;;;8.85;6.53;;;20.80;99.90;;;;;;5033759;28;20041;-72
2022/07/19 00:43:50;;;;;;;6.65;5.70;;;20.80;99.90;;;;;;5034923;28;20443;-72
2022/07/19 00:46:19;;;;;;;9.50;5.97;;;20.80;99.90;;;;;;5034762;28;20479;-70
2022/07/19 00:48:45;;;;;;;11.68;6.10;;;20.70;99.90;;;;;;5034918;28;20479;-73
2022/07/19 00:51:14;;;;;;;10.38;6.80;;;20.70;99.90;;;;;;5034738;28;20125;-72
2022/07/19 00:53:41;;;;;;;9.60;6.22;;;20.60;99.90;;;;;;5037015;28;20038;-70
2022/07/19 00:56:09;;;;;;;8.98;6.18;;;20.60;99.90;;;;;;5037778;28;20072;-71
2022/07/19 00:58:36;;;;;;;13.05;6.13;;;20.60;99.90;;;;;;5038579;28;20060;-70
2022/07/19 01:01:03;;;;;;;7.82;7.00;;;20.60;99.90;;;;;;5038425;28;20056;-71
2022/07/19 01:03:28;;;;;;;10.77;6.63;;;20.60;99.90;;;;;;5020953;28;20415;-72
2022/07/19 01:05:54;;;;;;;10.38;6.60;;;20.60;99.90;;;;;;5038653;28;20042;-71
2022/07/19 01:08:20;;;;;;;10.43;6.75;;;20.60;99.90;;;;;;5038380;28;20048;-70
2022/07/19 01:10:46;;;;;;;11.23;6.90;;;20.60;99.90;;;;;;5036483;28;20091;-70
2022/07/19 01:13:14;;;;;;;8.77;6.30;;;20.60;99.90;;;;;;4986247;28;20053;-71
2022/07/19 01:15:41;;;;;;;9.57;5.95;;;20.60;99.90;;;;;;5038173;28;20069;-72
2022/07/19 01:18:07;;;;;;;8.95;6.70;;;20.60;99.90;;;;;;5037959;28;20443;-72
2022/07/19 01:20:33;;;;;;;8.65;6.03;;;20.60;99.90;;;;;;5038120;28;20103;-72
2022/07/19 01:22:59;;;;;;;13.48;5.93;;;20.60;99.90;;;;;;5038147;28;20037;-70
2022/07/19 01:25:31;;;;;;;8.20;6.45;;;20.50;99.90;;;;;;5036640;28;20061;-70
2022/07/19 01:27:57;;;;;;;8.18;6.30;;;20.50;99.90;;;;;;5037933;28;20045;-72
2022/07/19 01:30:25;;;;;;;8.52;6.50;;;20.50;99.90;;;;;;5038013;28;20127;-72
2022/07/19 01:32:51;;;;;;;7.90;5.82;;;20.50;99.90;;;;;;5037834;28;20041;-74
2022/07/19 01:35:18;;;;;;;8.48;6.15;;;20.50;99.90;;;;;;5037971;28;20144;-73
2022/07/19 01:37:44;;;;;;;8.25;6.15;;;20.50;99.90;;;;;;5037905;28;20406;-74
2022/07/19 01:40:12;;;;;;;8.10;5.95;;;20.40;99.90;;;;;;5037030;28;20046;-73
2022/07/19 01:42:39;;;;;;;10.02;6.25;;;20.40;99.90;;;;;;5037583;28;20056;-72
2022/07/19 01:45:06;;;;;;;8.77;6.25;;;20.40;99.90;;;;;;5020049;28;20463;-70
2022/07/19 01:47:31;;;;;;;9.55;6.15;;;20.40;99.90;;;;;;5037020;28;20103;-72
2022/07/19 01:49:57;;;;;;;10.68;6.55;;;20.40;99.90;;;;;;5037663;28;20395;-71
2022/07/19 01:52:22;;;;;;;8.88;6.20;;;20.30;99.90;;;;;;5020522;28;20045;-72
2022/07/19 01:54:48;;;;;;;9.95;6.20;;;20.30;99.90;;;;;;5036467;28;20475;-72
2022/07/19 01:57:14;;;;;;;9.95;6.50;;;20.30;99.90;;;;;;5036792;28;20069;-71
2022/07/19 01:59:40;;;;;;;9.98;6.28;;;20.30;99.90;;;;;;5037639;28;20049;-72
2022/07/19 02:02:06;;;;;;;7.20;5.72;;;20.20;99.90;;;;;;5037418;28;20045;-72
2022/07/19 02:04:31;;;;;;;9.05;6.30;;;20.20;99.90;;;;;;5036586;28;20044;-70
2022/07/19 02:06:57;;;;;;;9.05;6.47;;;20.20;99.90;;;;;;5037298;28;20045;-72
2022/07/19 02:09:23;;;;;;;12.05;7.00;;;20.20;99.90;;;;;;5036786;28;20037;-71
2022/07/19 02:11:49;;;;;;;16.38;7.20;;;20.30;99.90;;;;;;5036844;28;20474;-71
2022/07/19 02:14:15;;;;;;;9.70;6.68;;;20.30;99.90;;;;;;5037196;28;20128;-71
2022/07/19 02:16:40;;;;;;;10.45;6.50;;;20.30;99.90;;;;;;5003416;28;20452;-71
2022/07/19 02:19:07;;;;;;;13.05;7.85;;;20.30;99.90;;;;;;5019794;28;20107;-71
2022/07/19 02:21:33;;;;;;;10.00;6.50;;;20.30;99.90;;;;;;5037106;28;20051;-69
2022/07/19 02:23:59;;;;;;;9.10;6.35;;;20.30;99.90;;;;;;5018767;28;20037;-72
2022/07/19 02:26:25;;;;;;;13.38;6.93;;;20.30;99.90;;;;;;5036891;28;20049;-71
2022/07/19 02:28:51;;;;;;;8.45;6.55;;;20.30;99.90;;;;;;5036834;28;20052;-71
2022/07/19 02:31:17;;;;;;;10.73;7.07;;;20.30;99.90;;;;;;5036772;28;20045;-74
2022/07/19 02:33:42;;;;;;;8.25;6.18;;;20.30;99.90;;;;;;5036813;28;20478;-70
2022/07/19 02:36:08;;;;;;;10.40;5.60;;;20.30;99.90;;;;;;5018644;28;20403;-69
2022/07/19 02:38:34;;;;;;;9.27;6.30;;;20.20;99.90;;;;;;5036796;28;20044;-69
2022/07/19 02:40:59;;;;;;;8.30;6.20;;;20.20;99.90;;;;;;5036789;28;20171;-73
2022/07/19 02:43:26;;;;;;;8.48;7.00;;;20.20;99.90;;;;;;5036208;28;20403;-71
2022/07/19 02:45:52;;;;;;;10.48;6.95;;;20.20;99.90;;;;;;5036704;28;20056;-72
2022/07/19 02:48:17;;;;;;;6.80;5.57;;;20.20;99.90;;;;;;5036604;28;20045;-71
2022/07/19 02:50:43;;;;;;;8.27;5.93;;;20.10;99.90;;;;;;5035232;28;20132;-69
2022/07/19 02:53:09;;;;;;;9.05;5.95;;;20.10;99.90;;;;;;5036580;28;20088;-73
2022/07/19 02:55:34;;;;;;;7.43;6.15;;;20.10;99.90;;;;;;5002309;28;20487;-72
2022/07/19 02:58:00;;;;;;;11.55;7.45;;;20.10;99.90;;;;;;5036379;28;20056;-73
2022/07/19 03:00:26;;;;;;;9.27;7.10;;;20.10;99.90;;;;;;5036140;28;20046;-72
2022/07/19 03:02:52;;;;;;;11.30;6.93;;;20.10;99.90;;;;;;5036389;28;20042;-70
2022/07/19 03:05:18;;;;;;;12.70;8.00;;;20.10;99.90;;;;;;5035574;28;20114;-73
2022/07/19 03:07:43;;;;;;;9.43;6.82;;;20.10;99.90;;;;;;5035972;28;20050;-72
2022/07/19 03:10:09;;;;;;;7.57;6.53;;;20.10;99.90;;;;;;5036081;28;20459;-70
2022/07/19 03:12:35;;;;;;;9.55;6.55;;;20.10;99.90;;;;;;5035206;28;20077;-72
2022/07/19 03:15:01;;;;;;;8.93;6.60;;;20.00;99.90;;;;;;5018478;28;20041;-70
2022/07/19 03:17:26;;;;;;;8.52;6.15;;;20.00;99.90;;;;;;5034931;28;20443;-71
2022/07/19 03:19:52;;;;;;;10.35;6.53;;;20.00;99.90;;;;;;5035482;28;20179;-72
2022/07/19 03:22:17;;;;;;;8.85;6.57;;;20.00;99.90;;;;;;5036280;28;20084;-71
2022/07/19 03:24:43;;;;;;;7.10;5.63;;;19.90;99.90;;;;;;5037973;28;20054;-72
2022/07/19 03:27:09;;;;;;;8.10;6.13;;;19.90;99.90;;;;;;5039414;28;20041;-70
2022/07/19 03:29:34;;;;;;;8.95;6.28;;;19.90;99.90;;;;;;5038733;28;20415;-70
2022/07/19 03:32:00;;;;;;;10.07;7.15;;;19.90;99.90;;;;;;5037341;28;20079;-69
2022/07/19 03:34:26;;;;;;;9.90;6.90;;;19.90;99.90;;;;;;5038164;28;20436;-69
2022/07/19 03:36:52;;;;;;;13.38;7.65;;;19.90;99.90;;;;;;5021142;28;20045;-69
2022/07/19 03:39:17;;;;;;;8.95;7.10;;;19.90;99.90;;;;;;5038380;28;20042;-69
2022/07/19 03:41:43;;;;;;;12.15;6.90;;;19.90;99.90;;;;;;5021109;28;20046;-70
2022/07/19 03:44:08;;;;;;;11.60;7.47;;;19.90;99.90;;;;;;5035431;28;20111;-70
2022/07/19 03:46:34;;;;;;;9.27;6.80;;;19.90;99.90;;;;;;5035121;28;20144;-69
2022/07/19 03:48:59;;;;;;;9.50;6.70;;;19.90;99.90;;;;;;5034096;28;20107;-71
2022/07/19 03:51:25;;;;;;;10.52;6.75;;;19.90;99.90;;;;;;5035507;28;20052;-73
2022/07/19 03:53:51;;;;;;;10.63;6.65;;;19.90;99.90;;;;;;5017753;28;20187;-72
2022/07/19 03:56:17;;;;;;;7.90;6.78;;;19.90;99.90;;;;;;5035126;28;20106;-71
2022/07/19 03:58:44;;;;;;;10.73;6.93;;;19.90;99.90;;;;;;5035608;28;20045;-70
2022/07/19 04:01:09;;;;;;;13.98;7.03;;;19.90;99.90;;;;;;5035163;28;20450;-72
2022/07/19 04:03:37;;;;;;;9.77;7.97;;;19.90;99.90;;;;;;5034481;28;20041;-70
2022/07/19 04:06:03;;;;;;;11.02;7.47;;;19.90;99.90;;;;;;5034662;28;20125;-72
2022/07/19 04:08:28;;;;;;;11.05;6.50;;;19.90;99.90;;;;;;5035056;28;20053;-71
2022/07/19 04:10:54;;;;;;;7.90;6.13;;;19.90;99.90;;;;;;5035004;28;20377;-71
2022/07/19 04:13:20;;;;;;;12.80;6.63;;;19.90;99.90;;;;;;5035020;28;20064;-73
2022/07/19 04:15:45;;;;;;;9.23;6.57;;;19.80;99.90;;;;;;5034865;28;20127;-70
2022/07/19 04:18:11;;;;;;;9.85;6.20;;;19.80;99.90;;;;;;5034533;28;20050;-72
2022/07/19 04:20:36;;;;;;;11.30;7.15;;;19.80;99.90;;;;;;5034267;28;20041;-72
2022/07/19 04:23:02;;;;;;;12.48;7.15;;;19.90;99.90;;;;;;5034881;28;20080;-73
2022/07/19 04:25:27;;;;;;;12.65;7.15;;;19.90;99.90;;;;;;5034575;28;20077;-72
2022/07/19 04:27:54;;;;;;;17.00;7.78;;;19.90;99.90;;;;;;5034611;28;20065;-71
2022/07/19 04:30:19;;;;;;;8.40;7.10;;;19.90;99.90;;;;;;5034851;28;20348;-72
2022/07/19 04:32:45;;;;;;;10.82;7.32;;;19.90;99.90;;;;;;5033458;28;20060;-70
2022/07/19 04:35:10;;;;;;;13.93;7.55;;;20.00;99.90;;;;;;5034946;28;20041;-73
2022/07/19 04:37:36;;;;;;;10.40;7.30;;;19.90;99.90;;;;;;5034778;28;20056;-71
2022/07/19 04:40:02;;;;;;;13.15;7.15;;;20.00;99.90;;;;;;5034704;28;20045;-70
2022/07/19 04:42:28;;;;;;;14.48;7.65;;;20.00;99.90;;;;;;5034734;28;20041;-72
2022/07/19 04:44:53;;;;;;;11.55;7.45;;;20.00;99.90;;;;;;5034623;28;20107;-69
2022/07/19 04:47:19;;;;;;;10.07;6.97;;;20.00;99.90;;;;;;5033834;28;20052;-72
2022/07/19 04:49:44;;;;;;;14.43;7.97;;;20.00;99.90;;;;;;5034793;28;20047;-70
2022/07/19 04:52:10;;;;;;;9.05;7.60;;;20.00;99.90;;;;;;5034671;28;20440;-72
2022/07/19 04:54:35;;;;;;;10.80;7.43;;;20.10;99.90;;;;;;5017266;28;20518;-72
2022/07/19 04:57:01;;;;;;;10.85;6.57;;;20.00;99.90;;;;;;5034537;28;20088;-69
2022/07/19 04:59:27;;;;;;;10.45;7.00;;;20.10;99.90;;;;;;5034668;28;20068;-72
2022/07/19 05:01:52;;;;;;;9.48;6.57;;;20.10;99.90;;;;;;5032921;28;20049;-69
2022/07/19 05:04:18;;;;;;;14.15;6.53;;;20.10;99.90;;;;;;5033775;28;20455;-72
2022/07/19 05:06:44;;;;;;;11.25;6.88;;;20.10;99.90;;;;;;5034652;28;20081;-70
2022/07/19 05:09:10;;;;;;;12.23;7.22;;;20.10;99.90;;;;;;5034544;28;20444;-71
2022/07/19 05:11:36;;;;;;;8.63;6.78;;;20.10;99.90;;;;;;5016818;28;20046;-73
2022/07/19 05:14:01;;;;;;;12.43;7.32;;;20.10;99.90;;;;;;5034401;28;20051;-69
2022/07/19 05:16:27;;;;;;;10.65;6.15;;;20.10;99.90;;;;;;5034099;28;20433;-72
2022/07/19 05:18:52;;;;;;;9.55;6.97;;;20.20;99.90;;;;;;5033568;28;20414;-71
2022/07/19 05:21:18;;;;;;;8.82;6.40;;;20.30;99.90;;;;;;5034349;28;20046;-71
2022/07/19 05:23:44;;;;;;;7.43;6.63;;;20.30;99.90;;;;;;5032465;28;20048;-70
2022/07/19 05:26:09;;;;;;;10.68;6.88;;;20.30;99.90;;;;;;5034056;28;20056;-71
2022/07/19 05:28:35;;;;;;;10.65;6.32;;;20.30;99.90;;;;;;5034302;28;20057;-66
2022/07/19 05:31:01;;;;;;;9.15;6.85;;;20.30;99.90;;;;;;5016924;28;20381;-68
2022/07/19 05:33:28;;;;;;;9.13;5.82;;;20.40;99.90;;;;;;5034309;28;20121;-72
2022/07/19 05:35:54;;;;;;;9.05;6.30;;;20.40;99.90;;;;;;5034593;28;20057;-70
2022/07/19 05:38:20;;;;;;;10.52;5.90;;;20.40;99.90;;;;;;5016543;28;20112;-68
2022/07/19 05:40:45;;;;;;;8.30;6.20;;;20.40;99.90;;;;;;5036538;28;20045;-69
2022/07/19 05:43:11;;;;;;;8.40;6.47;;;20.50;99.90;;;;;;5037861;28;20049;-70
2022/07/19 05:45:36;;;;;;;7.15;5.90;;;20.50;99.90;;;;;;5037731;28;20052;-68
2022/07/19 05:48:02;;;;;;;10.35;6.63;;;20.60;99.90;;;;;;5037631;28;20119;-69
2022/07/19 05:50:28;;;;;;;12.07;6.40;;;20.60;99.90;;;;;;5036370;28;20073;-71
2022/07/19 05:52:53;;;;;;;10.13;6.20;;;20.60;99.90;;;;;;5037462;28;20107;-68
2022/07/19 05:55:19;;;;;;;8.20;6.68;;;20.70;99.90;;;;;;5037436;28;20088;-71
2022/07/19 05:57:44;;;;;;;14.02;6.15;;;20.70;99.90;;;;;;5037292;28;20077;-70
2022/07/19 06:00:10;;;;;;;11.98;5.30;;;20.80;99.90;;;;;;5037410;28;20436;-72
2022/07/19 06:02:36;;;;;;;14.50;7.00;;;20.90;99.90;;;;;;5037452;28;20049;-68
2022/07/19 06:05:02;;;;;;;10.40;6.20;;;21.00;99.90;;;;;;5036782;28;20068;-69
2022/07/19 06:07:27;;;;;;;8.63;6.22;;;21.00;99.90;;;;;;5037270;28;20046;-72
2022/07/19 06:09:53;;;;;;;15.05;6.88;;;21.00;99.90;;;;;;5037094;28;20056;-71
2022/07/19 06:12:18;;;;;;;10.70;6.80;;;21.10;99.90;;;;;;5037217;28;20506;-70
2022/07/19 06:14:44;;;;;;;11.57;5.97;;;21.20;99.90;;;;;;5037190;28;20049;-72
2022/07/19 06:17:09;;;;;;;7.97;5.80;;;21.20;99.90;;;;;;5036466;28;20068;-69
2022/07/19 06:19:35;;;;;;;14.18;6.18;;;21.20;99.90;;;;;;5037345;28;20084;-70
2022/07/19 06:22:01;;;;;;;9.90;6.10;;;21.30;99.90;;;;;;5036412;28;20049;-71
2022/07/19 06:24:26;;;;;;;8.75;5.30;;;21.30;99.90;;;;;;5033692;28;20048;-69
2022/07/19 06:26:52;;;;;;;7.88;5.38;;;21.40;99.90;;;;;;5036431;28;20123;-71
2022/07/19 06:29:17;;;;;;;6.72;5.70;;;21.40;99.90;;;;;;5036744;28;20089;-69
2022/07/19 06:31:43;;;;;;;11.88;7.93;;;21.50;99.90;;;;;;5018842;28;20056;-77
2022/07/19 06:34:08;;;;;;;7.78;6.32;;;21.60;99.90;;;;;;5036846;28;20425;-72
2022/07/19 06:36:34;;;;;;;7.00;5.55;;;21.70;99.90;;;;;;5019103;28;20041;-67
2022/07/19 06:38:59;;;;;;;9.60;6.03;;;21.80;99.90;;;;;;5036890;28;20056;-70
2022/07/19 06:41:25;;;;;;;14.60;6.57;;;21.90;99.90;;;;;;5036948;28;20114;-69
2022/07/19 06:43:51;;;;;;;12.65;5.68;;;22.00;99.90;;;;;;5036708;28;20038;-69
2022/07/19 06:46:16;;;;;;;12.98;5.97;;;22.10;99.90;;;;;;5034738;28;20033;-69
2022/07/19 06:48:42;;;;;;;10.30;5.35;;;22.20;99.90;;;;;;5036252;28;20195;-69
2022/07/19 06:51:08;;;;;;;10.65;6.32;;;22.30;99.90;;;;;;5018533;28;20045;-69
2022/07/19 06:53:35;;;;;;;8.25;5.30;;;22.40;99.90;;;;;;5036486;28;20056;-69
2022/07/19 06:56:01;;;;;;;11.85;5.80;;;22.50;99.90;;;;;;5036236;28;20090;-69
2022/07/19 06:58:28;;;;;;;8.40;5.50;;;22.70;99.90;;;;;;5036432;28;20180;-72
2022/07/19 07:00:54;;;;;;;7.65;5.32;;;22.80;99.90;;;;;;5035800;28;20077;-69
2022/07/19 07:03:20;;;;;;;8.32;5.80;;;22.90;99.90;;;;;;5019069;28;20134;-70
2022/07/19 07:05:45;;;;;;;9.93;5.00;;;23.00;99.90;;;;;;5041420;28;20053;-70
2022/07/19 07:08:11;;;;;;;9.57;6.13;;;23.20;99.90;;;;;;5041995;28;20045;-68
2022/07/19 07:10:39;;;;;;;11.80;5.60;;;23.20;99.90;;;;;;5041533;28;20447;-67
2022/07/19 07:13:05;;;;;;;8.98;5.38;;;23.40;99.90;;;;;;5041474;28;20049;-68
2022/07/19 07:15:31;;;;;;;10.27;5.40;;;23.50;99.90;;;;;;5023409;28;20521;-68
2022/07/19 07:17:57;;;;;;;8.98;4.97;;;23.60;99.90;;;;;;5041535;28;20049;-69
2022/07/19 07:20:22;;;;;;;7.95;5.07;;;23.70;99.90;;;;;;5037711;28;20052;-68
2022/07/19 07:22:48;;;;;;;9.15;4.93;;;23.90;99.90;;;;;;5036095;28;20072;-66
2022/07/19 07:25:13;;;;;;;8.77;5.25;;;24.00;99.90;;;;;;5035884;28;20045;-66
2022/07/19 07:27:39;;;;;;;17.45;6.30;;;24.10;99.90;;;;;;5036032;28;20057;-69
2022/07/19 07:30:06;;;;;;;6.03;4.82;;;24.30;99.90;;;;;;5001450;28;20187;-70
2022/07/19 07:32:32;;;;;;;7.70;4.85;;;24.40;99.90;;;;;;5035719;28;20124;-67
2022/07/19 07:34:57;;;;;;;8.82;5.35;;;24.50;99.90;;;;;;5035370;28;20133;-67
2022/07/19 07:37:23;;;;;;;6.68;5.20;;;24.60;99.90;;;;;;5035581;28;20072;-68
2022/07/19 07:39:49;;;;;;;10.40;5.43;;;24.70;99.90;;;;;;5035118;28;20434;-67
2022/07/19 07:42:15;;;;;;;7.13;4.40;;;24.80;99.90;;;;;;5035603;28;20098;-69
2022/07/19 07:44:41;;;;;;;9.55;4.90;;;25.00;99.90;;;;;;5034416;28;20086;-66
2022/07/19 07:47:08;;;;;;;7.35;4.60;;;25.20;99.90;;;;;;5035606;28;20042;-67
2022/07/19 07:49:34;;;;;;;8.43;4.93;;;25.30;99.90;;;;;;5035492;28;20053;-68
2022/07/19 07:52:00;;;;;;;6.85;5.03;;;25.40;99.90;;;;;;5035310;28;20045;-68
2022/07/19 07:54:26;;;;;;;10.43;5.32;;;25.60;99.90;;;;;;5016160;28;20420;-66
2022/07/19 07:56:51;;;;;;;8.70;5.13;;;25.60;99.90;;;;;;5035353;28;20125;-71
2022/07/19 07:59:17;;;;;;;8.98;5.28;;;25.70;99.90;;;;;;5035290;28;20033;-66
2022/07/19 08:01:44;;;;;;;12.20;4.80;;;25.80;99.90;;;;;;5035261;28;20084;-68
2022/07/19 08:04:10;;;;;;;7.20;4.78;;;25.90;99.90;;;;;;5034562;28;20046;-68
2022/07/19 08:06:36;;;;;;;6.65;4.57;;;26.00;99.90;;;;;;5035084;28;20095;-67
2022/07/19 08:09:01;;;;;;;6.90;5.20;;;26.10;99.90;;;;;;5034289;28;20045;-66
2022/07/19 08:11:27;;;;;;;10.88;5.20;;;26.30;99.90;;;;;;5035201;28;20033;-67
2022/07/19 08:13:52;;;;;;;7.72;4.88;;;26.30;99.90;;;;;;5035158;28;20111;-66
2022/07/19 08:16:18;;;;;;;8.98;4.55;;;26.40;99.90;;;;;;5035058;28;20450;-67
2022/07/19 08:18:44;;;;;;;9.18;4.55;;;26.60;99.90;;;;;;5034158;28;20072;-71
2022/07/19 08:21:10;;;;;;;7.55;5.00;;;26.70;99.90;;;;;;5034866;28;20060;-70
2022/07/19 08:23:35;;;;;;;8.45;4.93;;;26.70;99.90;;;;;;5033928;28;20053;-70
2022/07/19 08:26:02;;;;;;;10.55;4.70;;;26.80;99.90;;;;;;5034909;28;20057;-69
2022/07/19 08:28:27;;;;;;;9.98;4.65;;;26.90;99.90;;;;;;5034846;28;20056;-73
2022/07/19 08:30:53;;;;;;;9.75;4.43;;;27.00;99.90;;;;;;5034942;28;20135;-70
2022/07/19 08:33:18;;;;;;;11.38;4.40;;;27.10;99.90;;;;;;5017111;28;20132;-70
2022/07/19 08:35:44;;;;;;;7.47;4.20;;;27.30;99.90;;;;;;5034705;28;20053;-67
2022/07/19 08:38:10;;;;;;;4.80;3.83;;;27.30;99.90;;;;;;5034116;28;20049;-69
2022/07/19 08:40:39;;;;;;;6.82;3.85;;;27.40;99.80;;;;;;5017638;28;20053;-68
2022/07/19 08:43:05;;;;;;;9.05;3.95;;;27.60;99.60;;;;;;5034823;28;20049;-66
2022/07/19 08:45:31;;;;;;;8.65;4.32;;;27.70;99.00;;;;;;5034799;28;20091;-67
2022/07/19 08:47:57;;;;;;;6.90;4.07;;;27.80;98.60;;;;;;5034719;28;20042;-68
2022/07/19 08:50:26;;;;;;;6.22;3.63;;;28.00;98.70;;;;;;5034597;28;20080;-66
2022/07/19 08:52:52;;;;;;;8.15;4.00;;;28.10;98.60;;;;;;5033100;28;20046;-67
2022/07/19 08:55:18;;;;;;;7.65;4.00;;;28.20;98.40;;;;;;5034613;28;20045;-68
2022/07/19 08:58:01;;;;;;;8.65;3.80;;;28.30;98.20;;;;;;5017156;28;20371;-67
2022/07/19 09:00:32;;;;;;;6.18;3.90;;;28.50;97.30;;;;;;5034584;28;20072;-70
2022/07/19 09:03:02;;;;;;;7.05;3.92;;;28.50;96.90;;;;;;5034563;28;20045;-69
2022/07/19 09:05:28;;;;;;;7.28;4.13;;;28.60;96.70;;;;;;5034588;28;20085;-67
2022/07/19 09:08:11;;;;;;;5.82;3.90;;;28.70;96.20;;;;;;5016505;28;20422;-71
2022/07/19 09:11:14;;;;;;;7.72;4.35;;;28.90;96.50;;;;;;5034101;28;20136;-68
2022/07/19 09:13:35;;;;;;;13.07;3.95;;;28.90;96.20;;;;;;5034783;28;20054;-67
2022/07/19 09:16:01;;;;;;;5.82;3.67;;;29.10;96.30;;;;;;5038295;28;20045;-67
2022/07/19 09:18:30;;;;;;;6.75;3.90;;;29.30;95.50;;;;;;5038192;28;20047;-67
2022/07/19 09:20:59;;;;;;;7.28;3.72;;;29.40;95.00;;;;;;5003622;28;20056;-68
2022/07/19 09:23:25;;;;;;;8.13;4.53;;;29.50;94.80;;;;;;5037919;28;20067;-69
2022/07/19 09:25:53;;;;;;;4.13;3.08;;;29.60;94.50;;;;;;5037755;28;20049;-70
2022/07/19 09:28:22;;;;;;;9.77;3.22;;;29.70;93.90;;;;;;5038087;28;20050;-70
2022/07/19 09:30:52;;;;;;;9.02;3.60;;;29.70;93.50;;;;;;5003975;28;20045;-70
2022/07/19 09:33:36;;;;;;;4.70;3.63;;;29.70;92.40;;;;;;5034367;28;20458;-69
2022/07/19 09:36:10;;;;;;;7.45;3.38;;;29.80;92.90;;;;;;5037997;28;20395;-70
2022/07/19 09:38:37;;;;;;;9.20;3.38;;;29.90;92.50;;;;;;5037914;28;20056;-68
2022/07/19 09:41:17;;;;;;;7.00;3.45;;;29.90;92.20;;;;;;5037939;28;20486;-69
2022/07/19 09:43:58;;;;;;;6.07;3.50;;;30.00;91.90;;;;;;5037421;28;20451;-71
2022/07/19 09:46:44;;;;;;;5.28;3.40;;;30.00;91.60;;;;;;5037224;28;20045;-70
2022/07/19 09:49:14;;;;;;;7.18;3.28;;;30.10;91.70;;;;;;5037965;28;20199;-68
2022/07/19 09:51:42;;;;;;;11.40;3.55;;;30.20;91.40;;;;;;5037599;28;20467;-67
2022/07/19 09:54:10;;;;;;;10.27;3.80;;;30.20;92.10;;;;;;5037509;28;20041;-68
2022/07/19 09:56:37;;;;;;;6.45;3.63;;;30.30;91.90;;;;;;5037430;28;20045;-70
2022/07/19 09:59:04;;;;;;;7.07;3.58;;;30.50;92.00;;;;;;5037460;28;20045;-69
2022/07/19 10:01:30;;;;;;;9.23;4.05;;;30.50;92.00;;;;;;5019333;28;20498;-70
2022/07/19 10:04:01;;;;;;;8.18;3.80;;;30.60;92.40;;;;;;5037437;28;20475;-69
2022/07/19 10:06:27;;;;;;;4.78;3.17;;;30.60;92.40;;;;;;5037137;28;20037;-69
2022/07/19 10:08:54;;;;;;;9.00;3.60;;;30.60;92.10;;;;;;5036666;28;20368;-70
2022/07/19 10:11:21;;;;;;;7.70;3.88;;;30.80;91.60;;;;;;5037137;28;20052;-71
2022/07/19 10:13:49;;;;;;;7.72;3.53;;;31.00;91.80;;;;;;5035873;28;20080;-70
2022/07/19 10:16:21;;;;;;;7.22;3.50;;;31.00;90.50;;;;;;5018890;28;20045;-69
2022/07/19 10:19:15;;;;;;;4.25;3.42;;;31.10;90.00;;;;;;5036974;28;20095;-71
2022/07/19 10:21:42;;;;;;;7.15;3.35;;;31.20;90.50;;;;;;5036305;28;20038;-70
2022/07/19 10:24:08;;;;;;;6.25;3.67;;;31.20;90.20;;;;;;5036762;28;20041;-69
2022/07/19 10:26:38;;;;;;;5.05;3.67;;;31.30;90.60;;;;;;5015302;28;20112;-71
2022/07/19 10:29:17;;;;;;;6.95;3.75;;;31.40;90.60;;;;;;5017203;28;20060;-71
2022/07/19 10:32:01;;;;;;;5.30;3.17;;;31.50;90.20;;;;;;5016855;28;20460;-70
2022/07/19 10:34:26;;;;;;;6.00;3.47;;;31.70;90.50;;;;;;5015308;28;20052;-70
2022/07/19 10:36:53;;;;;;;4.85;3.75;;;31.70;89.10;;;;;;5016272;28;20184;-69
2022/07/19 10:39:34;;;;;;;11.27;3.45;;;31.90;89.70;;;;;;5017019;28;20053;-70
2022/07/19 10:42:23;;;;;;;9.00;3.80;;;31.70;87.60;;;;;;5017651;28;20049;-68
2022/07/19 10:44:54;;;;;;;7.35;3.63;;;32.10;89.30;;;;;;5017545;28;20041;-69
2022/07/19 10:47:32;;;;;;;3.92;3.30;;;32.10;88.00;;;;;;5018547;28;20145;-70
2022/07/19 10:50:07;;;;;;;11.38;4.55;;;32.10;87.20;;;;;;5016082;28;20038;-68
2022/07/19 10:52:34;;;;;;;8.68;3.53;;;32.30;87.10;;;;;;5017159;28;20046;-69
2022/07/19 10:55:19;;;;;;;3.95;3.20;;;32.30;87.60;;;;;;5016967;28;20049;-70
2022/07/19 10:57:48;;;;;;;8.00;3.80;;;32.40;86.40;;;;;;5016880;28;20060;-69
2022/07/19 11:00:19;;;;;;;6.53;4.32;;;32.60;85.00;;;;;;5016730;28;20050;-70
2022/07/19 11:02:45;;;;;;;6.38;3.72;;;32.70;84.20;;;;;;5016318;28;20364;-71
2022/07/19 11:05:24;;;;;;;4.25;3.10;;;32.80;85.00;;;;;;5016479;28;20046;-72
2022/07/19 11:07:51;;;;;;;7.53;3.10;;;33.00;85.00;;;;;;5016398;28;20064;-70
2022/07/19 11:10:25;;;;;;;7.28;3.58;;;33.20;84.00;;;;;;5016199;28;20125;-71
2022/07/19 11:12:51;;;;;;;3.95;3.38;;;33.10;79.40;;;;;;5009501;28;20042;-71
2022/07/19 11:15:17;;;;;;;10.15;3.42;;;33.20;81.80;;;;;;5008525;28;20045;-72
2022/07/19 11:18:12;;;;;;;4.90;3.47;;;33.30;82.60;;;;;;5015156;28;20056;-71
2022/07/19 11:20:38;;;;;;;5.18;3.40;;;33.40;82.10;;;;;;4998807;28;20050;-71
2022/07/19 11:23:04;;;;;;;5.53;3.50;;;33.60;81.70;;;;;;5015785;28;20453;-72
2022/07/19 11:25:34;;;;;;;4.65;3.67;;;33.80;80.90;;;;;;5019612;28;20099;-70
2022/07/19 11:28:00;;;;;;;4.25;3.40;;;34.10;79.20;;;;;;5035678;28;20037;-70
2022/07/19 11:30:29;;;;;;;4.53;3.72;;;34.10;78.30;;;;;;5035597;28;20060;-75
2022/07/19 11:32:58;;;;;;;9.38;3.30;;;34.30;77.30;;;;;;5034730;28;20045;-73
2022/07/19 11:35:25;;;;;;;5.00;3.33;;;34.50;78.60;;;;;;5034908;28;20099;-72
2022/07/19 11:37:53;;;;;;;6.43;3.17;;;34.50;78.00;;;;;;5034610;28;20113;-71
2022/07/19 11:40:19;;;;;;;7.78;3.60;;;34.70;78.30;;;;;;5035670;28;20049;-72
2022/07/19 11:42:47;;;;;;;3.50;2.92;;;34.80;77.50;;;;;;5030804;28;21326;-71
2022/07/19 11:45:15;;;;;;;6.55;3.25;;;34.90;75.90;;;;;;5032940;28;20130;-72
2022/07/19 11:47:45;;;;;;;7.43;4.00;;;35.20;75.40;;;;;;5034264;28;20056;-72
2022/07/19 11:50:14;;;;;;;6.97;3.20;;;35.30;73.90;;;;;;5030677;28;20109;-74
2022/07/19 11:52:48;;;;;;;6.57;2.95;;;35.40;75.30;;;;;;5026094;28;20369;-71
2022/07/19 11:55:15;;;;;;;4.97;3.17;;;35.70;75.80;;;;;;5018694;28;20033;-72
2022/07/19 11:57:41;;;;;;;5.75;3.78;;;35.80;74.20;;;;;;5034772;28;20045;-72
2022/07/19 12:00:09;;;;;;;5.50;2.95;;;36.00;75.60;;;;;;5034978;28;20076;-72
2022/07/19 12:03:03;;;;;;;5.43;3.00;;;36.00;74.20;;;;;;5035080;28;20053;-73
2022/07/19 12:05:31;;;;;;;8.90;3.60;;;36.10;72.00;;;;;;5034971;28;20060;-73
2022/07/19 12:08:00;;;;;;;4.63;3.10;;;36.30;73.80;;;;;;5034748;28;20411;-73
2022/07/19 12:10:40;;;;;;;9.68;3.80;;;36.40;73.20;;;;;;5034620;28;20045;-72
2022/07/19 12:13:08;;;;;;;4.07;3.20;;;36.60;72.10;;;;;;5030032;28;20045;-74
2022/07/19 12:15:44;;;;;;;7.97;3.40;;;36.50;72.30;;;;;;5021422;28;20763;-73
2022/07/19 12:18:10;;;;;;;4.32;2.83;;;36.50;69.20;;;;;;5018516;28;20132;-72
2022/07/19 12:20:35;;;;;;;4.78;3.20;;;36.60;70.10;;;;;;5019063;28;20191;-72
2022/07/19 12:23:16;;;;;;;8.05;3.90;;;37.00;70.90;;;;;;5015173;28;20049;-73
2022/07/19 12:25:42;;;;;;;5.32;3.20;;;37.10;67.80;;;;;;5014851;28;20058;-72
2022/07/19 12:28:08;;;;;;;5.50;3.30;;;37.00;68.30;;;;;;5015219;28;20056;-72
2022/07/19 12:30:34;;;;;;;6.07;3.17;;;37.40;68.80;;;;;;5025348;28;20517;-72
2022/07/19 12:33:13;;;;;;;7.00;3.90;;;37.50;68.10;;;;;;5034385;28;20125;-72
2022/07/19 12:35:47;;;;;;;4.70;3.15;;;37.90;67.60;;;;;;5034606;28;20045;-72
2022/07/19 12:38:14;;;;;;;6.88;3.55;;;37.90;66.60;;;;;;5016480;28;20099;-72
2022/07/19 12:40:43;;;;;;;5.80;3.10;;;38.10;67.70;;;;;;5034495;28;20077;-72
2022/07/19 12:43:13;;;;;;;5.97;3.35;;;38.20;66.60;;;;;;5034573;28;20072;-73